createdAt,value
2022-08-24T00:00:07.701Z,15.80
2022-08-24T00:02:34.562Z,15.80
2022-08-24T00:05:01.642Z,15.70
2022-08-24T00:07:28.589Z,15.60
2022-08-24T00:09:56.075Z,15.60
2022-08-24T00:12:23.319Z,15.60
2022-08-24T00:14:50.311Z,15.60
2022-08-24T00:17:17.432Z,15.50
2022-08-24T00:19:44.220Z,15.40
2022-08-24T00:22:10.982Z,15.30
2022-08-24T00:24:37.966Z,15.20
2022-08-24T00:27:06.589Z,15.20
2022-08-24T00:29:33.948Z,15.20
2022-08-24T00:32:01.166Z,15.30
2022-08-24T00:34:28.922Z,15.40
2022-08-24T00:36:55.953Z,15.50
2022-08-24T00:39:22.913Z,15.50
2022-08-24T00:41:51.463Z,15.40
2022-08-24T00:44:20.889Z,15.40
2022-08-24T00:47:01.164Z,15.40
2022-08-24T00:49:33.273Z,15.40
2022-08-24T00:52:06.650Z,15.30
2022-08-24T00:54:41.706Z,15.30
2022-08-24T00:57:15.739Z,15.30
2022-08-24T00:59:48.445Z,15.30
2022-08-24T01:02:24.788Z,15.30
2022-08-24T01:05:01.580Z,15.30
2022-08-24T01:07:32.146Z,15.20
2022-08-24T01:10:03.607Z,15.10
2022-08-24T01:12:33.157Z,15.10
2022-08-24T01:15:02.447Z,15.00
2022-08-24T01:17:48.006Z,15.00
2022-08-24T01:20:15.382Z,15.00
2022-08-24T01:23:00.686Z,15.00
2022-08-24T01:25:28.881Z,15.00
2022-08-24T01:27:59.287Z,15.00
2022-08-24T01:30:36.213Z,15.00
2022-08-24T01:33:07.106Z,15.10
2022-08-24T01:35:36.565Z,15.30
2022-08-24T01:38:07.527Z,15.30
2022-08-24T01:40:38.546Z,15.30
2022-08-24T01:43:07.334Z,15.30
2022-08-24T01:45:34.566Z,15.10
2022-08-24T01:48:03.031Z,15.00
2022-08-24T01:50:30.261Z,15.00
2022-08-24T01:53:05.224Z,14.90
2022-08-24T01:55:33.222Z,14.90
2022-08-24T01:58:00.332Z,14.90
2022-08-24T02:00:27.817Z,14.80
2022-08-24T02:02:56.541Z,14.70
2022-08-24T02:05:24.239Z,14.70
2022-08-24T02:07:52.012Z,14.70
2022-08-24T02:10:19.275Z,14.60
2022-08-24T02:12:57.588Z,14.50
2022-08-24T02:15:27.823Z,14.40
2022-08-24T02:17:55.286Z,14.50
2022-08-24T02:20:22.093Z,14.50
2022-08-24T02:22:52.870Z,14.50
2022-08-24T02:25:20.482Z,14.60
2022-08-24T02:27:47.447Z,14.60
2022-08-24T02:30:15.181Z,14.60
2022-08-24T02:32:42.147Z,14.60
2022-08-24T02:35:10.000Z,14.60
2022-08-24T02:37:43.290Z,14.60
2022-08-24T02:40:12.498Z,14.70
2022-08-24T02:42:39.605Z,14.70
2022-08-24T02:45:07.597Z,14.70
2022-08-24T02:47:38.712Z,14.70
2022-08-24T02:50:08.139Z,14.60
2022-08-24T02:52:36.184Z,14.50
2022-08-24T02:55:03.130Z,14.40
2022-08-24T02:57:29.891Z,14.30
2022-08-24T02:59:56.575Z,14.20
2022-08-24T03:02:23.404Z,14.30
2022-08-24T03:04:50.145Z,14.20
2022-08-24T03:07:16.852Z,14.20
2022-08-24T03:09:43.513Z,14.10
2022-08-24T03:12:10.676Z,14.10
2022-08-24T03:14:37.944Z,14.10
2022-08-24T03:17:05.022Z,14.00
2022-08-24T03:19:31.681Z,14.00
2022-08-24T03:21:58.390Z,14.00
2022-08-24T03:24:25.081Z,14.10
2022-08-24T03:26:51.774Z,14.00
2022-08-24T03:29:18.617Z,13.90
2022-08-24T03:31:46.737Z,13.90
2022-08-24T03:34:13.690Z,13.90
2022-08-24T03:36:43.602Z,13.90
2022-08-24T03:39:10.260Z,13.90
2022-08-24T03:41:36.984Z,13.80
2022-08-24T03:44:04.550Z,13.90
2022-08-24T03:46:36.413Z,14.00
2022-08-24T03:49:05.866Z,14.00
2022-08-24T03:51:32.668Z,14.00
2022-08-24T03:54:00.625Z,14.00
2022-08-24T03:56:27.766Z,13.90
2022-08-24T03:58:55.100Z,13.80
2022-08-24T04:01:22.098Z,13.80
2022-08-24T04:03:50.106Z,13.70
2022-08-24T04:06:19.075Z,13.70
2022-08-24T04:08:46.350Z,13.70
2022-08-24T04:11:19.547Z,13.70
2022-08-24T04:13:46.852Z,13.70
2022-08-24T04:16:18.974Z,13.70
2022-08-24T04:18:46.407Z,13.70
2022-08-24T04:21:25.458Z,13.80
2022-08-24T04:23:52.749Z,13.70
2022-08-24T04:26:26.888Z,13.60
2022-08-24T04:29:11.000Z,13.50
2022-08-24T04:31:40.266Z,13.50
2022-08-24T04:34:07.680Z,13.50
2022-08-24T04:36:34.970Z,13.60
2022-08-24T04:39:02.933Z,13.60
2022-08-24T04:41:31.347Z,13.50
2022-08-24T04:43:59.739Z,13.50
2022-08-24T04:46:27.331Z,13.50
2022-08-24T04:48:54.486Z,13.50
2022-08-24T04:51:21.691Z,13.60
2022-08-24T04:53:49.287Z,13.60
2022-08-24T04:56:20.245Z,13.60
2022-08-24T04:58:47.247Z,13.70
2022-08-24T05:01:17.950Z,13.80
2022-08-24T05:03:46.217Z,13.90
2022-08-24T05:06:15.339Z,14.10
2022-08-24T05:08:43.398Z,14.30
2022-08-24T05:11:10.218Z,14.40
2022-08-24T05:13:38.034Z,14.50
2022-08-24T05:16:10.764Z,14.50
2022-08-24T05:18:38.569Z,14.70
2022-08-24T05:21:10.584Z,14.80
2022-08-24T05:23:38.322Z,14.90
2022-08-24T05:26:14.742Z,15.00
2022-08-24T05:28:42.367Z,15.10
2022-08-24T05:31:14.634Z,15.30
2022-08-24T05:33:41.974Z,15.40
2022-08-24T05:36:22.766Z,15.50
2022-08-24T05:38:51.046Z,15.70
2022-08-24T05:41:17.884Z,16.00
2022-08-24T05:43:44.815Z,16.20
2022-08-24T05:46:12.105Z,16.50
2022-08-24T05:48:38.899Z,16.70
2022-08-24T05:51:07.509Z,16.90
2022-08-24T05:53:35.111Z,17.20
2022-08-24T05:56:06.799Z,17.30
2022-08-24T05:58:34.973Z,17.50
2022-08-24T06:01:14.846Z,17.80
2022-08-24T06:03:41.937Z,18.10
2022-08-24T06:06:09.794Z,18.40
2022-08-24T06:08:41.441Z,18.60
2022-08-24T06:11:08.526Z,18.80
2022-08-24T06:13:36.635Z,18.70
2022-08-24T06:16:21.381Z,18.80
2022-08-24T06:18:49.830Z,19.00
2022-08-24T06:21:24.291Z,19.30
2022-08-24T06:23:51.494Z,19.20
2022-08-24T06:26:38.690Z,18.70
2022-08-24T06:29:06.897Z,18.70
2022-08-24T06:31:42.176Z,18.90
2022-08-24T06:34:11.665Z,19.10
2022-08-24T06:36:39.981Z,19.40
2022-08-24T06:39:10.058Z,19.60
2022-08-24T06:41:40.973Z,19.90
2022-08-24T06:44:08.639Z,20.30
2022-08-24T06:46:36.457Z,20.70
2022-08-24T06:49:03.931Z,21.10
2022-08-24T06:51:31.777Z,21.50
2022-08-24T06:53:58.879Z,21.60
2022-08-24T06:56:25.834Z,21.80
2022-08-24T06:58:52.592Z,22.00
2022-08-24T07:01:26.370Z,22.30
2022-08-24T07:03:53.639Z,22.30
2022-08-24T07:06:22.220Z,22.20
2022-08-24T07:08:49.104Z,22.40
2022-08-24T07:11:18.254Z,22.30
2022-08-24T07:13:49.114Z,21.90
2022-08-24T07:16:17.884Z,22.30
2022-08-24T07:18:50.000Z,22.50
2022-08-24T07:21:19.654Z,22.60
2022-08-24T07:23:48.541Z,22.60
2022-08-24T07:26:21.970Z,22.40
2022-08-24T07:28:51.501Z,22.60
2022-08-24T07:31:18.304Z,22.80
2022-08-24T07:33:45.135Z,23.00
2022-08-24T07:36:12.872Z,22.80
2022-08-24T07:38:49.434Z,22.60
2022-08-24T07:44:03.148Z,23.00
2022-08-24T07:46:29.924Z,23.20
2022-08-24T07:49:11.020Z,23.50
2022-08-24T07:51:46.951Z,23.60
2022-08-24T07:54:14.136Z,23.60
2022-08-24T07:56:41.969Z,23.80
2022-08-24T07:59:12.832Z,23.60
2022-08-24T08:01:40.597Z,23.30
2022-08-24T08:04:07.850Z,23.30
2022-08-24T08:06:34.836Z,23.70
2022-08-24T08:09:02.866Z,23.70
2022-08-24T08:11:29.565Z,24.00
2022-08-24T08:13:56.283Z,24.10
2022-08-24T08:16:23.034Z,24.10
2022-08-24T08:18:56.447Z,24.40
2022-08-24T08:22:03.879Z,24.40
2022-08-24T08:24:30.573Z,24.30
2022-08-24T08:26:58.401Z,24.60
2022-08-24T08:29:26.405Z,24.30
2022-08-24T08:31:53.670Z,24.30
2022-08-24T08:34:20.749Z,24.30
2022-08-24T08:36:47.919Z,24.50
2022-08-24T08:39:17.291Z,24.70
2022-08-24T08:41:52.017Z,24.80
2022-08-24T08:44:25.807Z,24.80
2022-08-24T08:47:22.641Z,24.90
2022-08-24T08:50:14.170Z,25.10
2022-08-24T08:52:55.757Z,24.70
2022-08-24T08:56:03.122Z,25.00
2022-08-24T08:58:57.215Z,25.10
2022-08-24T09:01:46.787Z,25.20
2022-08-24T09:04:59.699Z,25.10
2022-08-24T09:07:49.660Z,24.90
2022-08-24T09:10:24.922Z,24.80
2022-08-24T09:13:20.933Z,25.20
2022-08-24T09:16:11.030Z,25.20
2022-08-24T09:18:59.503Z,25.60
2022-08-24T09:21:35.355Z,25.90
2022-08-24T09:24:26.135Z,26.10
2022-08-24T09:27:25.199Z,26.00
2022-08-24T09:30:16.491Z,25.80
2022-08-24T09:33:10.424Z,25.60
2022-08-24T09:36:00.928Z,25.50
2022-08-24T09:39:06.923Z,25.70
2022-08-24T09:41:51.901Z,26.10
2022-08-24T09:44:43.487Z,26.10
2022-08-24T09:47:37.360Z,25.80
2022-08-24T09:50:06.885Z,25.70
2022-08-24T09:52:57.970Z,25.70
2022-08-24T09:55:41.956Z,25.70
2022-08-24T09:58:23.818Z,25.90
2022-08-24T10:01:09.174Z,26.20
2022-08-24T10:04:12.474Z,26.40
2022-08-24T10:06:57.589Z,26.70
2022-08-24T10:09:52.273Z,26.80
2022-08-24T10:12:47.700Z,26.60
2022-08-24T10:15:29.576Z,26.60
2022-08-24T10:18:14.347Z,26.70
2022-08-24T10:21:12.968Z,27.10
2022-08-24T10:55:21.433Z,26.20
2022-08-24T10:58:11.352Z,26.50
2022-08-24T11:00:39.521Z,26.50
2022-08-24T11:03:17.177Z,26.40
2022-08-24T11:05:53.801Z,26.40
2022-08-24T11:08:28.036Z,26.50
2022-08-24T11:11:23.392Z,26.50
2022-08-24T11:13:59.162Z,26.80
2022-08-24T11:16:44.982Z,26.80
2022-08-24T11:19:18.851Z,26.90
2022-08-24T11:21:52.191Z,27.10
2022-08-24T11:24:18.801Z,27.20
2022-08-24T11:27:02.743Z,27.70
2022-08-24T11:29:49.336Z,27.90
2022-08-24T11:32:46.893Z,28.00
2022-08-24T11:35:22.068Z,27.80
2022-08-24T11:37:51.608Z,27.80
2022-08-24T11:40:22.100Z,27.70
2022-08-24T11:43:16.179Z,27.80
2022-08-24T11:46:05.582Z,28.00
2022-08-24T11:48:50.859Z,28.50
2022-08-24T11:51:56.880Z,29.10
2022-08-24T11:54:27.098Z,28.80
2022-08-24T11:57:29.841Z,28.70
2022-08-24T12:00:13.705Z,28.80
2022-08-24T12:02:54.334Z,28.10
2022-08-24T12:05:38.967Z,27.60
2022-08-24T12:08:30.464Z,27.10
2022-08-24T12:11:05.497Z,26.90
2022-08-24T12:13:47.391Z,27.00
2022-08-24T12:16:37.354Z,27.70
2022-08-24T12:19:19.385Z,28.10
2022-08-24T12:21:51.294Z,27.90
2022-08-24T12:24:30.683Z,28.10
2022-08-24T12:27:04.527Z,28.30
2022-08-24T12:29:44.580Z,27.90
2022-08-24T12:32:28.782Z,27.50
2022-08-24T12:35:03.742Z,27.80
2022-08-24T12:37:38.805Z,28.00
2022-08-24T12:40:22.773Z,28.00
2022-08-24T12:42:55.668Z,27.80
2022-08-24T12:45:23.879Z,27.80
2022-08-24T12:48:08.580Z,27.60
2022-08-24T12:50:50.657Z,27.90
2022-08-24T12:53:38.448Z,28.40
2022-08-24T12:56:42.784Z,28.70
2022-08-24T12:59:31.847Z,28.20
2022-08-24T13:02:06.353Z,28.50
2022-08-24T13:04:51.193Z,28.80
2022-08-24T13:07:23.697Z,29.10
2022-08-24T13:09:55.893Z,29.20
2022-08-24T13:12:43.831Z,29.40
2022-08-24T13:15:30.541Z,29.60
2022-08-24T13:18:24.865Z,29.60
2022-08-24T13:20:55.449Z,30.00
2022-08-24T13:23:24.306Z,30.20
2022-08-24T13:26:17.311Z,29.90
2022-08-24T13:28:52.803Z,29.60
2022-08-24T13:31:34.109Z,29.40
2022-08-24T13:34:24.917Z,29.80
2022-08-24T13:37:16.966Z,30.40
2022-08-24T13:39:49.783Z,30.10
2022-08-24T13:42:50.869Z,29.80
2022-08-24T13:45:23.608Z,29.30
2022-08-24T13:47:59.750Z,28.60
2022-08-24T13:50:59.696Z,27.70
2022-08-24T13:53:47.507Z,27.60
2022-08-24T13:56:33.229Z,27.70
2022-08-24T13:59:24.896Z,27.60
2022-08-24T14:02:10.262Z,27.30
2022-08-24T14:05:02.353Z,27.50
2022-08-24T14:07:46.853Z,27.80
2022-08-24T14:10:34.535Z,28.00
2022-08-24T14:13:26.733Z,27.90
2022-08-24T14:16:28.705Z,27.50
2022-08-24T14:19:27.070Z,27.40
2022-08-24T14:22:03.037Z,28.00
2022-08-24T14:25:00.385Z,28.20
2022-08-24T14:27:38.069Z,28.30
2022-08-24T14:30:19.987Z,28.50
2022-08-24T14:33:01.749Z,28.30
2022-08-24T14:35:34.331Z,28.40
2022-08-24T14:38:22.883Z,28.50
2022-08-24T14:41:20.522Z,28.50
2022-08-24T14:44:06.022Z,28.40
2022-08-24T14:46:44.299Z,28.20
2022-08-24T14:49:20.151Z,28.20
2022-08-24T14:51:55.623Z,28.10
2022-08-24T14:54:50.994Z,27.80
2022-08-24T14:57:31.305Z,27.50
2022-08-24T15:00:23.404Z,27.50
2022-08-24T15:03:14.766Z,27.70
2022-08-24T15:05:43.408Z,27.80
2022-08-24T15:08:26.939Z,27.80
2022-08-24T15:11:02.354Z,27.80
2022-08-24T15:13:52.213Z,27.70
2022-08-24T15:16:21.879Z,27.80
2022-08-24T15:19:08.717Z,28.00
2022-08-24T15:21:41.537Z,28.00
2022-08-24T15:24:35.885Z,27.90
2022-08-24T15:27:23.825Z,27.80
2022-08-24T15:29:57.432Z,27.50
2022-08-24T15:32:38.930Z,27.50
2022-08-24T15:35:05.999Z,27.40
2022-08-24T15:37:38.303Z,27.30
2022-08-24T15:40:17.757Z,27.10
2022-08-24T15:42:44.875Z,26.90
2022-08-24T15:45:13.191Z,26.80
2022-08-24T15:47:46.505Z,26.70
2022-08-24T15:50:22.250Z,26.50
2022-08-24T15:53:26.544Z,26.50
2022-08-24T15:55:53.603Z,26.30
2022-08-24T15:58:36.239Z,26.30
2022-08-24T16:01:43.257Z,26.30
2022-08-24T16:04:34.460Z,26.20
2022-08-24T16:07:01.143Z,26.20
2022-08-24T16:09:27.813Z,26.00
2022-08-24T16:12:00.070Z,25.80
2022-08-24T16:14:32.156Z,25.60
2022-08-24T16:17:01.838Z,25.60
2022-08-24T16:19:33.565Z,25.60
2022-08-24T16:22:08.964Z,25.50
2022-08-24T16:24:41.154Z,25.40
2022-08-24T16:27:13.800Z,25.40
2022-08-24T16:29:41.877Z,25.30
2022-08-24T16:32:23.091Z,25.30
2022-08-24T16:35:08.761Z,25.20
2022-08-24T16:37:36.142Z,25.20
2022-08-24T16:40:04.861Z,25.10
2022-08-24T16:42:32.025Z,25.10
2022-08-24T16:44:59.642Z,25.00
2022-08-24T16:47:27.795Z,25.00
2022-08-24T16:49:54.659Z,24.90
2022-08-24T16:52:21.733Z,24.80
2022-08-24T16:54:49.056Z,24.80
2022-08-24T16:57:22.845Z,24.80
2022-08-24T16:59:51.907Z,24.70
2022-08-24T17:02:21.584Z,24.60
2022-08-24T17:04:49.769Z,24.60
2022-08-24T17:07:21.323Z,24.60
2022-08-24T17:09:48.645Z,24.50
2022-08-24T17:12:15.414Z,24.50
2022-08-24T17:14:43.449Z,24.40
2022-08-24T17:17:13.517Z,24.30
2022-08-24T17:19:42.353Z,24.20
2022-08-24T17:22:15.669Z,24.10
2022-08-24T17:24:43.570Z,24.10
2022-08-24T17:27:10.709Z,24.10
2022-08-24T17:29:37.526Z,24.00
2022-08-24T17:32:05.119Z,24.00
2022-08-24T17:34:32.175Z,23.90
2022-08-24T17:36:59.022Z,23.80
2022-08-24T17:39:25.712Z,23.80
2022-08-24T17:41:53.956Z,23.80
2022-08-24T17:44:25.754Z,23.70
2022-08-24T17:46:55.611Z,23.70
2022-08-24T17:49:22.339Z,23.60
2022-08-24T17:51:50.072Z,23.50
2022-08-24T17:54:17.741Z,23.40
2022-08-24T17:56:46.566Z,23.40
2022-08-24T17:59:24.853Z,23.30
2022-08-24T18:01:58.517Z,23.30
2022-08-24T18:04:30.270Z,23.10
2022-08-24T18:07:01.026Z,23.10
2022-08-24T18:09:35.198Z,23.00
2022-08-24T18:12:05.317Z,23.00
2022-08-24T18:14:32.620Z,22.90
2022-08-24T18:17:02.516Z,22.90
2022-08-24T18:19:29.213Z,22.80
2022-08-24T18:21:55.866Z,22.80
2022-08-24T18:24:22.869Z,22.80
2022-08-24T18:26:49.700Z,22.70
2022-08-24T18:29:19.515Z,22.70
2022-08-24T18:31:48.203Z,22.70
2022-08-24T18:34:21.877Z,22.70
2022-08-24T18:36:49.455Z,22.60
2022-08-24T18:39:16.331Z,22.60
2022-08-24T18:41:49.447Z,22.50
2022-08-24T18:44:20.482Z,22.50
2022-08-24T18:46:48.808Z,22.40
2022-08-24T18:49:17.010Z,22.40
2022-08-24T18:51:44.897Z,22.30
2022-08-24T18:54:17.241Z,22.30
2022-08-24T18:56:45.138Z,22.20
2022-08-24T18:59:14.640Z,22.20
2022-08-24T19:02:01.826Z,22.10
2022-08-24T19:04:33.190Z,22.10
2022-08-24T19:07:00.575Z,22.10
2022-08-24T19:09:30.772Z,22.00
2022-08-24T19:12:00.310Z,22.00
2022-08-24T19:14:27.007Z,21.90
2022-08-24T19:16:53.655Z,21.90
2022-08-24T19:19:22.289Z,21.90
2022-08-24T19:21:49.535Z,21.80
2022-08-24T19:24:19.104Z,21.80
2022-08-24T19:26:45.983Z,21.70
2022-08-24T19:29:12.658Z,21.70
2022-08-24T19:31:39.498Z,21.70
2022-08-24T19:34:06.680Z,21.60
2022-08-24T19:36:33.424Z,21.60
2022-08-24T19:39:00.350Z,21.60
2022-08-24T19:41:36.740Z,21.50
2022-08-24T19:44:27.398Z,21.50
2022-08-24T19:46:55.530Z,21.40
2022-08-24T19:49:22.792Z,21.30
2022-08-24T19:51:51.046Z,21.20
2022-08-24T19:54:18.167Z,21.20
2022-08-24T19:56:45.802Z,21.20
2022-08-24T19:59:25.863Z,21.10
2022-08-24T20:01:52.805Z,21.10
2022-08-24T20:04:19.709Z,21.10
2022-08-24T20:06:46.654Z,21.10
2022-08-24T20:09:13.541Z,21.10
2022-08-24T20:11:40.330Z,21.10
2022-08-24T20:14:07.570Z,21.00
2022-08-24T20:16:42.247Z,20.80
2022-08-24T20:19:11.100Z,20.70
2022-08-24T20:21:38.007Z,20.70
2022-08-24T20:24:06.280Z,20.70
2022-08-24T20:26:40.270Z,20.60
2022-08-24T20:29:07.229Z,20.50
2022-08-24T20:31:34.264Z,20.60
2022-08-24T20:34:00.987Z,20.60
2022-08-24T20:36:36.355Z,20.60
2022-08-24T20:39:05.945Z,20.60
2022-08-24T20:41:33.404Z,20.60
2022-08-24T20:44:01.487Z,20.60
2022-08-24T20:46:28.935Z,20.60
2022-08-24T20:48:57.310Z,20.60
2022-08-24T20:51:27.217Z,20.50
2022-08-24T20:53:54.299Z,20.50
2022-08-24T20:56:39.242Z,20.50
2022-08-24T20:59:09.774Z,20.50
2022-08-24T21:01:37.517Z,20.40
2022-08-24T21:04:05.613Z,20.20
2022-08-24T21:06:34.235Z,20.30
2022-08-24T21:09:01.242Z,20.30
2022-08-24T21:11:28.182Z,20.30
2022-08-24T21:13:55.041Z,20.30
2022-08-24T21:16:21.740Z,20.30
2022-08-24T21:18:49.301Z,20.20
2022-08-24T21:21:16.502Z,20.20
2022-08-24T21:23:43.229Z,20.20
2022-08-24T21:26:13.209Z,20.20
2022-08-24T21:28:41.878Z,20.20
2022-08-24T21:31:08.891Z,20.20
2022-08-24T21:33:54.034Z,20.30
2022-08-24T21:36:24.563Z,20.10
2022-08-24T21:38:53.540Z,20.10
2022-08-24T21:41:21.614Z,20.00
2022-08-24T21:43:48.477Z,20.10
2022-08-24T21:46:15.386Z,20.00
2022-08-24T21:48:42.099Z,19.90
2022-08-24T21:51:08.883Z,19.80
2022-08-24T21:53:35.724Z,19.80
2022-08-24T21:56:02.782Z,19.80
2022-08-24T21:58:29.640Z,19.70
2022-08-24T22:00:59.301Z,19.50
2022-08-24T22:03:37.465Z,19.60
2022-08-24T22:06:08.628Z,19.60
2022-08-24T22:08:36.555Z,19.70
2022-08-24T22:11:03.391Z,19.60
2022-08-24T22:13:30.039Z,19.60
2022-08-24T22:15:56.766Z,19.60
2022-08-24T22:18:23.606Z,19.60
2022-08-24T22:20:50.318Z,19.60
2022-08-24T22:23:17.012Z,19.60
2022-08-24T22:25:44.291Z,19.50
2022-08-24T22:28:10.969Z,19.40
2022-08-24T22:30:37.599Z,19.40
2022-08-24T22:33:05.053Z,19.30
2022-08-24T22:35:36.160Z,19.30
2022-08-24T22:38:11.541Z,19.30
2022-08-24T22:40:38.313Z,19.40
2022-08-24T22:43:05.227Z,19.40
2022-08-24T22:45:31.978Z,19.40
2022-08-24T22:47:58.957Z,19.30
2022-08-24T22:50:25.929Z,19.30
2022-08-24T22:52:53.777Z,19.30
2022-08-24T22:55:21.007Z,19.20
2022-08-24T22:57:51.151Z,19.20
2022-08-24T23:00:18.539Z,19.10
2022-08-24T23:02:45.233Z,19.10
2022-08-24T23:05:11.944Z,19.10
2022-08-24T23:07:38.620Z,19.00
2022-08-24T23:10:06.438Z,18.90
2022-08-24T23:12:33.336Z,18.90
2022-08-24T23:15:00.363Z,18.70
2022-08-24T23:17:27.062Z,18.70
2022-08-24T23:20:06.444Z,18.70
2022-08-24T23:22:41.777Z,18.80
2022-08-24T23:25:11.589Z,18.80
2022-08-24T23:27:39.037Z,18.80
2022-08-24T23:30:09.790Z,18.80
2022-08-24T23:32:36.572Z,18.90
2022-08-24T23:35:04.305Z,18.90
2022-08-24T23:37:31.096Z,19.00
2022-08-24T23:39:58.521Z,18.80
2022-08-24T23:42:25.342Z,18.60
2022-08-24T23:44:52.694Z,18.50
2022-08-24T23:47:20.993Z,18.40
2022-08-24T23:49:47.680Z,18.30
2022-08-24T23:52:28.552Z,18.30
2022-08-24T23:55:06.961Z,18.20
2022-08-24T23:57:45.965Z,18.30
